createdAt,value
2022-08-17T00:00:44.113Z,9.80
2022-08-17T00:03:10.597Z,10.07
2022-08-17T00:05:43.648Z,9.60
2022-08-17T00:08:12.564Z,10.53
2022-08-17T00:10:40.860Z,11.20
2022-08-17T00:13:11.511Z,10.83
2022-08-17T00:15:41.283Z,10.60
2022-08-17T00:19:06.323Z,11.60
2022-08-17T00:20:58.697Z,11.20
2022-08-17T00:23:28.291Z,9.87
2022-08-17T00:25:56.707Z,10.93
2022-08-17T00:28:25.136Z,10.70
2022-08-17T00:30:55.747Z,10.20
2022-08-17T00:33:27.551Z,10.47
2022-08-17T00:35:57.126Z,10.07
2022-08-17T00:38:26.224Z,11.77
2022-08-17T00:40:59.261Z,10.50
2022-08-17T00:43:32.668Z,12.00
2022-08-17T00:46:06.903Z,11.07
2022-08-17T00:48:35.962Z,11.83
2022-08-17T00:51:13.451Z,11.63
2022-08-17T00:53:48.849Z,11.23
2022-08-17T00:56:21.045Z,11.27
2022-08-17T00:58:52.913Z,10.67
2022-08-17T01:01:22.731Z,10.73
2022-08-17T01:03:52.600Z,11.20
2022-08-17T01:06:24.873Z,9.77
2022-08-17T01:08:57.635Z,10.50
2022-08-17T01:11:26.337Z,11.10
2022-08-17T01:13:54.863Z,11.63
2022-08-17T01:16:28.257Z,11.53
2022-08-17T01:19:01.204Z,10.60
2022-08-17T01:21:34.314Z,11.17
2022-08-17T01:24:05.383Z,10.57
2022-08-17T01:26:35.643Z,11.13
2022-08-17T01:29:06.585Z,10.53
2022-08-17T01:31:39.148Z,12.27
2022-08-17T01:34:10.949Z,10.83
2022-08-17T01:36:40.470Z,10.97
2022-08-17T01:39:14.759Z,11.60
2022-08-17T01:41:43.314Z,10.87
2022-08-17T01:44:11.617Z,11.00
2022-08-17T01:46:39.786Z,11.80
2022-08-17T01:49:08.953Z,12.07
2022-08-17T01:51:37.179Z,11.80
2022-08-17T01:54:09.453Z,11.50
2022-08-17T01:56:42.326Z,12.57
2022-08-17T01:59:11.840Z,12.33
2022-08-17T02:01:40.372Z,12.57
2022-08-17T02:04:09.178Z,11.57
2022-08-17T02:06:52.474Z,12.13
2022-08-17T02:09:23.984Z,11.40
2022-08-17T02:11:56.667Z,11.43
2022-08-17T02:14:25.771Z,11.33
2022-08-17T02:16:56.100Z,11.50
2022-08-17T02:19:24.266Z,11.33
2022-08-17T02:21:54.729Z,10.80
2022-08-17T02:25:00.592Z,11.00
2022-08-17T02:27:15.396Z,11.30
2022-08-17T02:29:43.441Z,11.67
2022-08-17T02:32:20.669Z,11.03
2022-08-17T02:34:55.745Z,9.70
2022-08-17T02:37:23.918Z,10.80
2022-08-17T02:39:52.111Z,10.50
2022-08-17T02:42:27.684Z,9.67
2022-08-17T02:44:55.879Z,10.13
2022-08-17T02:47:24.515Z,10.57
2022-08-17T02:49:55.410Z,10.87
2022-08-17T02:52:42.766Z,10.60
2022-08-17T02:55:14.688Z,10.87
2022-08-17T02:57:44.678Z,10.60
2022-08-17T03:00:16.350Z,10.90
2022-08-17T03:02:45.829Z,10.07
2022-08-17T03:05:15.892Z,9.90
2022-08-17T03:07:44.073Z,11.37
2022-08-17T03:10:12.746Z,10.57
2022-08-17T03:12:43.453Z,11.70
2022-08-17T03:15:14.278Z,11.80
2022-08-17T03:17:42.508Z,14.20
2022-08-17T03:20:11.805Z,11.47
2022-08-17T03:22:42.831Z,12.23
2022-08-17T03:25:19.587Z,10.70
2022-08-17T03:27:52.458Z,10.50
2022-08-17T03:30:22.387Z,10.60
2022-08-17T03:32:53.293Z,11.33
2022-08-17T03:35:23.514Z,11.13
2022-08-17T03:38:00.036Z,11.07
2022-08-17T03:40:55.213Z,11.10
2022-08-17T03:43:19.809Z,11.27
2022-08-17T03:46:05.803Z,11.40
2022-08-17T03:48:56.280Z,12.57
2022-08-17T03:51:43.709Z,11.43
2022-08-17T03:54:30.636Z,11.70
2022-08-17T03:57:03.277Z,11.00
2022-08-17T03:59:33.291Z,11.53
2022-08-17T04:02:07.366Z,11.10
2022-08-17T04:04:35.890Z,11.37
2022-08-17T04:07:04.303Z,11.43
2022-08-17T04:09:32.341Z,11.07
2022-08-17T04:12:01.325Z,11.50
2022-08-17T04:14:36.695Z,11.00
2022-08-17T04:17:21.186Z,10.77
2022-08-17T04:19:49.220Z,11.63
2022-08-17T04:22:31.130Z,11.97
2022-08-17T04:25:04.029Z,10.17
2022-08-17T04:27:32.195Z,11.20
2022-08-17T04:30:01.784Z,10.33
2022-08-17T04:33:05.486Z,10.33
2022-08-17T04:35:23.011Z,11.23
2022-08-17T04:37:51.218Z,10.43
2022-08-17T04:40:38.030Z,12.83
2022-08-17T04:43:08.651Z,10.40
2022-08-17T04:45:55.023Z,11.33
2022-08-17T04:48:32.239Z,10.80
2022-08-17T04:51:09.744Z,11.07
2022-08-17T04:53:38.731Z,10.00
2022-08-17T04:56:07.177Z,10.30
2022-08-17T04:58:35.355Z,9.47
2022-08-17T05:01:05.907Z,9.23
2022-08-17T05:03:34.143Z,8.60
2022-08-17T05:06:02.241Z,8.70
2022-08-17T05:08:30.591Z,8.73
2022-08-17T05:10:58.625Z,9.10
2022-08-17T05:13:29.569Z,8.30
2022-08-17T05:16:00.467Z,8.23
2022-08-17T05:18:31.026Z,8.73
2022-08-17T05:20:59.562Z,8.23
2022-08-17T05:23:41.671Z,8.63
2022-08-17T05:26:21.374Z,8.03
2022-08-17T05:28:55.448Z,7.20
2022-08-17T05:31:25.812Z,8.33
2022-08-17T05:33:55.324Z,7.30
2022-08-17T05:36:42.397Z,11.10
2022-08-17T05:39:16.815Z,7.60
2022-08-17T05:41:47.407Z,6.67
2022-08-17T05:44:15.776Z,8.57
2022-08-17T05:46:48.923Z,8.77
2022-08-17T05:49:24.317Z,7.57
2022-08-17T05:52:14.781Z,8.17
2022-08-17T05:54:58.439Z,8.20
2022-08-17T05:57:57.321Z,7.70
2022-08-17T06:00:30.075Z,8.00
2022-08-17T06:03:35.315Z,7.67
2022-08-17T06:06:18.192Z,7.63
2022-08-17T06:08:52.115Z,7.80
2022-08-17T06:11:28.468Z,8.07
2022-08-17T06:14:10.491Z,7.93
2022-08-17T06:16:46.011Z,7.60
2022-08-17T06:19:18.574Z,7.77
2022-08-17T06:21:51.150Z,6.30
2022-08-17T06:24:28.429Z,8.10
2022-08-17T06:27:01.135Z,8.10
2022-08-17T06:29:38.533Z,8.13
2022-08-17T06:32:10.225Z,8.93
2022-08-17T06:34:42.384Z,7.70
2022-08-17T06:37:34.513Z,8.07
2022-08-17T06:40:20.627Z,6.73
2022-08-17T06:43:05.616Z,10.87
2022-08-17T06:45:40.180Z,6.83
2022-08-17T06:48:16.252Z,6.87
2022-08-17T06:50:53.411Z,9.33
2022-08-17T06:53:27.814Z,9.57
2022-08-17T06:55:59.878Z,9.80
2022-08-17T06:58:31.454Z,14.63
2022-08-17T07:01:05.000Z,12.17
2022-08-17T07:03:37.935Z,6.83
2022-08-17T07:06:09.726Z,7.93
2022-08-17T07:08:52.353Z,7.97
2022-08-17T07:11:27.375Z,7.93
2022-08-17T07:14:06.638Z,8.80
2022-08-17T07:16:41.089Z,8.03
2022-08-17T07:19:10.930Z,7.37
2022-08-17T07:21:58.594Z,8.17
2022-08-17T07:24:35.547Z,8.87
2022-08-17T07:27:10.299Z,6.90
2022-08-17T07:29:42.391Z,7.27
2022-08-17T07:32:12.423Z,7.87
2022-08-17T07:35:23.001Z,8.83
2022-08-17T07:37:55.605Z,8.30
2022-08-17T07:40:29.410Z,9.13
2022-08-17T07:43:22.255Z,8.63
2022-08-17T07:46:32.128Z,9.03
2022-08-17T07:49:19.930Z,8.50
2022-08-17T07:52:24.245Z,7.80
2022-08-17T07:54:49.369Z,7.53
2022-08-17T07:57:33.856Z,7.80
2022-08-17T08:00:24.367Z,9.43
2022-08-17T08:03:21.679Z,6.90
2022-08-17T08:05:56.282Z,7.03
2022-08-17T08:08:29.912Z,6.97
2022-08-17T08:11:08.845Z,7.97
2022-08-17T08:13:42.538Z,7.67
2022-08-17T08:16:22.630Z,6.93
2022-08-17T08:18:56.719Z,7.23
2022-08-17T08:21:37.423Z,8.07
2022-08-17T08:24:26.388Z,8.83
2022-08-17T08:27:13.798Z,7.90
2022-08-17T08:29:50.024Z,9.50
2022-08-17T08:32:22.889Z,6.30
2022-08-17T08:35:04.592Z,7.83
2022-08-17T08:37:44.477Z,6.23
2022-08-17T08:40:34.532Z,8.20
2022-08-17T08:43:12.594Z,7.67
2022-08-17T08:45:50.131Z,7.40
2022-08-17T08:48:53.749Z,7.10
2022-08-17T08:51:35.775Z,7.20
2022-08-17T08:54:12.445Z,6.80
2022-08-17T08:57:11.976Z,7.00
2022-08-17T08:59:41.960Z,7.00
2022-08-17T09:02:24.938Z,7.63
2022-08-17T09:05:20.366Z,7.37
2022-08-17T09:07:57.386Z,8.57
2022-08-17T09:10:31.607Z,8.13
2022-08-17T09:13:11.035Z,7.43
2022-08-17T09:15:43.440Z,8.03
2022-08-17T09:19:03.583Z,7.83
2022-08-17T09:21:12.417Z,7.47
2022-08-17T09:23:49.436Z,7.73
2022-08-17T09:26:22.829Z,7.67
2022-08-17T09:28:52.876Z,6.93
2022-08-17T09:31:27.686Z,8.13
2022-08-17T09:34:03.327Z,7.83
2022-08-17T09:36:35.957Z,6.67
2022-08-17T09:39:10.025Z,7.80
2022-08-17T09:41:48.889Z,7.83
2022-08-17T09:44:26.934Z,7.67
2022-08-17T09:47:05.115Z,6.60
2022-08-17T09:49:39.203Z,7.23
2022-08-17T09:52:16.719Z,7.27
2022-08-17T09:54:47.714Z,7.57
2022-08-17T09:57:31.039Z,7.30
2022-08-17T10:00:16.800Z,7.20
2022-08-17T10:03:18.904Z,7.63
2022-08-17T10:05:56.562Z,8.30
2022-08-17T10:08:37.737Z,8.13
2022-08-17T10:11:16.707Z,8.10
2022-08-17T10:13:52.695Z,7.03
2022-08-17T10:16:30.533Z,8.70
2022-08-17T10:19:08.121Z,8.10
2022-08-17T10:22:00.893Z,8.00
2022-08-17T10:25:21.296Z,7.27
2022-08-17T10:27:44.967Z,7.63
2022-08-17T10:30:18.074Z,7.03
2022-08-17T10:32:55.112Z,7.07
2022-08-17T10:35:39.147Z,7.47
2022-08-17T10:38:30.004Z,7.70
2022-08-17T10:41:02.455Z,6.87
2022-08-17T10:43:41.763Z,6.90
2022-08-17T10:46:30.949Z,7.60
2022-08-17T10:49:24.285Z,6.90
2022-08-17T10:51:54.476Z,6.73
2022-08-17T10:55:06.238Z,7.37
2022-08-17T10:57:38.660Z,6.93
2022-08-17T11:00:14.720Z,7.90
2022-08-17T11:02:50.816Z,7.17
2022-08-17T11:05:43.495Z,6.50
2022-08-17T11:08:35.650Z,8.23
2022-08-17T11:11:36.059Z,6.97
2022-08-17T11:14:24.035Z,6.77
2022-08-17T11:17:08.745Z,7.57
2022-08-17T11:20:04.848Z,7.40
2022-08-17T11:22:57.999Z,7.70
2022-08-17T11:25:38.362Z,7.40
2022-08-17T11:28:17.424Z,7.30
2022-08-17T11:30:51.872Z,9.40
2022-08-17T11:33:52.721Z,7.70
2022-08-17T11:36:41.963Z,7.60
2022-08-17T11:39:33.290Z,7.00
2022-08-17T11:42:07.001Z,6.87
2022-08-17T11:44:47.855Z,12.70
2022-08-17T11:47:38.715Z,8.10
2022-08-17T11:50:55.049Z,7.90
2022-08-17T11:54:21.430Z,9.10
2022-08-17T11:56:49.848Z,7.37
2022-08-17T11:59:58.556Z,7.13
2022-08-17T12:02:47.376Z,7.23
2022-08-17T12:05:35.092Z,7.00
2022-08-17T12:08:18.519Z,7.37
2022-08-17T12:10:57.071Z,7.43
2022-08-17T12:13:27.364Z,7.53
2022-08-17T12:16:06.779Z,7.20
2022-08-17T12:18:39.611Z,7.33
2022-08-17T12:21:45.002Z,7.77
2022-08-17T12:24:38.765Z,7.50
2022-08-17T12:27:10.590Z,6.70
2022-08-17T12:29:45.119Z,7.00
2022-08-17T12:32:20.108Z,7.47
2022-08-17T12:34:51.258Z,7.77
2022-08-17T12:37:22.752Z,10.13
2022-08-17T12:39:59.793Z,6.70
2022-08-17T12:42:31.599Z,7.13
2022-08-17T12:45:00.145Z,7.40
2022-08-17T12:47:31.888Z,7.43
2022-08-17T12:50:28.194Z,7.43
2022-08-17T12:53:01.699Z,7.70
2022-08-17T12:55:36.877Z,7.33
2022-08-17T12:58:05.873Z,8.50
2022-08-17T13:00:37.963Z,7.70
2022-08-17T13:03:09.720Z,12.40
2022-08-17T13:05:48.355Z,7.30
2022-08-17T13:08:18.878Z,7.43
2022-08-17T13:10:56.431Z,7.13
2022-08-17T13:13:27.323Z,8.00
2022-08-17T13:15:58.192Z,7.73
2022-08-17T13:18:43.694Z,6.87
2022-08-17T13:21:26.849Z,7.00
2022-08-17T13:24:00.893Z,7.43
2022-08-17T13:26:33.908Z,8.07
2022-08-17T13:29:05.335Z,6.27
2022-08-17T13:31:49.809Z,7.80
2022-08-17T13:35:11.537Z,7.07
2022-08-17T13:37:33.146Z,7.57
2022-08-17T13:40:05.621Z,7.53
2022-08-17T13:42:51.741Z,7.97
2022-08-17T13:45:50.514Z,7.40
2022-08-17T13:48:27.274Z,7.53
2022-08-17T13:51:23.183Z,7.20
2022-08-17T13:54:02.454Z,6.67
2022-08-17T13:57:06.115Z,7.53
2022-08-17T13:59:54.804Z,7.10
2022-08-17T14:02:27.817Z,7.27
2022-08-17T14:04:57.841Z,6.80
2022-08-17T14:07:37.344Z,6.40
2022-08-17T14:10:11.297Z,6.60
2022-08-17T14:12:41.504Z,7.10
2022-08-17T14:15:11.174Z,7.27
2022-08-17T14:17:39.636Z,6.90
2022-08-17T14:20:10.771Z,7.10
2022-08-17T14:22:46.226Z,6.60
2022-08-17T14:25:15.739Z,7.10
2022-08-17T14:27:53.456Z,7.10
2022-08-17T14:30:23.748Z,7.30
2022-08-17T14:32:52.719Z,7.27
2022-08-17T14:35:23.221Z,7.17
2022-08-17T14:37:53.845Z,8.00
2022-08-17T14:40:24.393Z,7.63
2022-08-17T14:42:53.736Z,7.03
2022-08-17T14:45:29.850Z,7.73
2022-08-17T14:48:04.180Z,6.80
2022-08-17T14:50:35.793Z,7.93
2022-08-17T14:53:06.396Z,7.73
2022-08-17T14:55:35.484Z,7.07
2022-08-17T14:58:04.250Z,8.77
2022-08-17T15:00:32.547Z,6.90
2022-08-17T15:03:02.207Z,6.20
2022-08-17T15:05:36.501Z,7.17
2022-08-17T15:08:07.237Z,6.97
2022-08-17T15:10:36.195Z,7.27
2022-08-17T15:13:04.899Z,6.70
2022-08-17T15:15:33.003Z,6.73
2022-08-17T15:18:02.380Z,6.87
2022-08-17T15:20:31.322Z,7.30
2022-08-17T15:22:59.958Z,6.60
2022-08-17T15:25:31.906Z,7.27
2022-08-17T15:28:01.432Z,7.13
2022-08-17T15:30:30.334Z,7.30
2022-08-17T15:33:00.635Z,6.57
2022-08-17T15:35:31.503Z,6.80
2022-08-17T15:38:04.923Z,6.70
2022-08-17T15:40:36.858Z,6.80
2022-08-17T15:43:10.325Z,6.50
2022-08-17T15:45:38.633Z,6.03
2022-08-17T15:48:06.933Z,6.83
2022-08-17T15:50:34.990Z,7.07
2022-08-17T15:53:04.667Z,7.53
2022-08-17T15:55:35.011Z,6.27
2022-08-17T15:58:03.113Z,6.40
2022-08-17T16:00:31.406Z,6.40
2022-08-17T16:03:57.411Z,6.30
2022-08-17T16:06:08.393Z,6.00
2022-08-17T16:08:41.569Z,6.10
2022-08-17T16:11:12.474Z,6.50
2022-08-17T16:13:41.579Z,6.40
2022-08-17T16:16:11.664Z,6.63
2022-08-17T16:18:40.332Z,7.17
2022-08-17T16:21:31.163Z,6.40
2022-08-17T16:24:13.074Z,6.10
2022-08-17T16:26:44.433Z,6.33
2022-08-17T16:29:12.490Z,6.83
2022-08-17T16:31:41.416Z,6.43
2022-08-17T16:34:16.813Z,6.60
2022-08-17T16:36:55.110Z,6.30
2022-08-17T16:39:25.946Z,6.93
2022-08-17T16:41:56.166Z,5.77
2022-08-17T16:44:26.022Z,6.30
2022-08-17T16:46:54.208Z,6.23
2022-08-17T16:49:35.079Z,6.50
2022-08-17T16:52:07.818Z,6.40
2022-08-17T16:54:38.265Z,6.20
2022-08-17T16:57:07.985Z,6.03
2022-08-17T16:59:41.902Z,6.20
2022-08-17T17:02:15.875Z,6.37
2022-08-17T17:04:48.474Z,6.50
2022-08-17T17:07:34.994Z,6.07
2022-08-17T17:10:08.457Z,6.03
2022-08-17T17:13:01.669Z,6.30
2022-08-17T17:15:33.769Z,6.47
2022-08-17T17:18:07.269Z,6.20
2022-08-17T17:20:43.886Z,6.27
2022-08-17T17:23:24.651Z,6.17
2022-08-17T17:26:00.356Z,6.53
2022-08-17T17:28:40.455Z,6.37
2022-08-17T17:31:15.478Z,6.60
2022-08-17T17:33:48.297Z,6.90
2022-08-17T17:36:25.242Z,6.13
2022-08-17T17:38:55.357Z,8.53
2022-08-17T17:41:29.170Z,7.73
2022-08-17T17:44:07.558Z,6.77
2022-08-17T17:46:39.445Z,6.97
2022-08-17T17:49:10.117Z,6.97
2022-08-17T17:52:06.484Z,6.13
2022-08-17T17:54:48.191Z,6.80
2022-08-17T17:57:24.587Z,9.93
2022-08-17T18:00:03.182Z,6.17
2022-08-17T18:02:53.288Z,6.30
2022-08-17T18:05:37.335Z,6.30
2022-08-17T18:08:14.967Z,6.00
2022-08-17T18:10:51.020Z,5.90
2022-08-17T18:13:29.262Z,5.63
2022-08-17T18:16:00.974Z,6.40
2022-08-17T18:18:38.498Z,6.47
2022-08-17T18:21:15.762Z,6.13
2022-08-17T18:23:55.077Z,6.00
2022-08-17T18:26:41.913Z,6.57
2022-08-17T18:29:22.222Z,6.03
2022-08-17T18:32:32.437Z,6.13
2022-08-17T18:35:27.653Z,6.30
2022-08-17T18:37:57.897Z,5.93
2022-08-17T18:40:33.498Z,6.70
2022-08-17T18:43:07.383Z,9.57
2022-08-17T18:45:40.740Z,7.33
2022-08-17T18:48:21.012Z,8.10
2022-08-17T18:50:49.626Z,6.40
2022-08-17T18:53:30.199Z,7.73
2022-08-17T18:56:24.576Z,6.80
2022-08-17T18:58:59.525Z,6.67
2022-08-17T19:01:53.234Z,7.30
2022-08-17T19:04:37.112Z,10.73
2022-08-17T19:07:27.450Z,8.60
2022-08-17T19:10:00.364Z,8.50
2022-08-17T19:12:34.047Z,7.33
2022-08-17T19:15:03.573Z,12.10
2022-08-17T19:17:40.882Z,7.20
2022-08-17T19:20:17.467Z,10.77
2022-08-17T19:23:03.578Z,6.97
2022-08-17T19:25:35.277Z,8.00
2022-08-17T19:28:21.674Z,6.93
2022-08-17T19:30:55.885Z,10.33
2022-08-17T19:33:24.802Z,9.33
2022-08-17T19:36:02.967Z,9.27
2022-08-17T19:38:41.349Z,10.17
2022-08-17T19:41:17.529Z,9.37
2022-08-17T19:43:58.737Z,7.83
2022-08-17T19:46:36.230Z,9.03
2022-08-17T19:49:16.609Z,7.00
2022-08-17T19:51:52.895Z,7.87
2022-08-17T19:54:30.464Z,7.60
2022-08-17T19:57:11.243Z,7.30
2022-08-17T19:59:49.488Z,8.17
2022-08-17T20:02:31.747Z,7.10
2022-08-17T20:05:06.164Z,7.23
2022-08-17T20:07:45.470Z,7.10
2022-08-17T20:10:24.280Z,7.63
2022-08-17T20:12:54.435Z,7.80
2022-08-17T20:15:29.529Z,7.60
2022-08-17T20:18:01.297Z,8.90
2022-08-17T20:20:36.180Z,6.90
2022-08-17T20:23:12.321Z,7.60
2022-08-17T20:25:47.034Z,9.57
2022-08-17T20:28:23.784Z,8.33
2022-08-17T20:30:52.965Z,7.60
2022-08-17T20:33:28.449Z,7.73
2022-08-17T20:36:17.819Z,8.17
2022-08-17T20:38:50.416Z,7.70
2022-08-17T20:41:22.536Z,7.67
2022-08-17T20:44:06.492Z,7.63
2022-08-17T20:46:57.798Z,8.30
2022-08-17T20:49:32.333Z,7.80
2022-08-17T20:52:03.665Z,7.60
2022-08-17T20:54:48.816Z,8.03
2022-08-17T20:57:47.329Z,7.97
2022-08-17T21:00:43.609Z,7.27
2022-08-17T21:03:50.087Z,7.40
2022-08-17T21:06:22.948Z,7.50
2022-08-17T21:08:58.531Z,7.17
2022-08-17T21:12:04.011Z,7.10
2022-08-17T21:15:04.481Z,7.40
2022-08-17T21:17:47.162Z,7.10
2022-08-17T21:20:32.571Z,6.97
2022-08-17T21:23:19.141Z,7.40
2022-08-17T21:26:35.367Z,7.03
2022-08-17T21:29:32.046Z,7.43
2022-08-17T21:32:24.179Z,7.80
2022-08-17T21:35:28.794Z,7.10
2022-08-17T21:38:06.485Z,7.30
2022-08-17T21:40:36.314Z,7.80
2022-08-17T21:43:23.411Z,7.40
2022-08-17T21:46:25.709Z,7.67
2022-08-17T21:48:59.782Z,7.03
2022-08-17T21:51:31.422Z,6.77
2022-08-17T21:54:04.600Z,7.60
2022-08-17T21:56:36.497Z,7.03
2022-08-17T21:59:07.932Z,7.37
2022-08-17T22:01:41.447Z,7.93
2022-08-17T22:04:21.461Z,7.87
2022-08-17T22:06:56.922Z,7.90
2022-08-17T22:09:29.891Z,7.23
2022-08-17T22:12:04.250Z,7.43
2022-08-17T22:14:51.558Z,7.90
2022-08-17T22:17:26.531Z,7.13
2022-08-17T22:19:58.037Z,7.10
2022-08-17T22:22:32.434Z,7.70
2022-08-17T22:25:02.529Z,8.40
2022-08-17T22:27:54.401Z,7.70
2022-08-17T22:30:33.105Z,11.23
2022-08-17T22:33:23.299Z,10.33
2022-08-17T22:36:14.829Z,8.13
2022-08-17T22:38:44.646Z,7.60
2022-08-17T22:41:50.931Z,30.70
2022-08-17T22:44:27.143Z,10.93
2022-08-17T22:47:02.205Z,9.13
2022-08-17T22:49:34.154Z,7.60
2022-08-17T22:52:23.328Z,6.70
2022-08-17T22:55:22.875Z,8.37
2022-08-17T22:58:08.954Z,7.50
2022-08-17T23:00:40.135Z,6.73
2022-08-17T23:03:16.008Z,8.73
2022-08-17T23:05:47.313Z,10.20
2022-08-17T23:08:21.042Z,11.27
2022-08-17T23:10:49.884Z,12.03
2022-08-17T23:13:18.046Z,11.20
2022-08-17T23:15:48.131Z,13.43
2022-08-17T23:18:17.550Z,10.90
2022-08-17T23:20:46.584Z,12.77
2022-08-17T23:23:18.795Z,12.00
2022-08-17T23:25:50.210Z,13.10
2022-08-17T23:28:18.279Z,13.90
2022-08-17T23:30:48.357Z,13.80
2022-08-17T23:33:19.826Z,14.47
2022-08-17T23:35:47.890Z,13.73
2022-08-17T23:38:17.289Z,12.83
2022-08-17T23:40:45.509Z,12.10
2022-08-17T23:43:23.491Z,13.83
2022-08-17T23:45:54.284Z,16.00
2022-08-17T23:48:28.497Z,13.93
2022-08-17T23:51:09.450Z,12.50
2022-08-17T23:53:44.002Z,12.87
2022-08-17T23:56:12.061Z,11.77
2022-08-17T23:58:42.145Z,14.10
